Terminal Aerodrome Forecast
Issued by NWS

Home | Current Version | Previous Version | Text Only | Print | Product List | Glossary On
Versions: 1 2 3 4 5 6 7 8 9 10 11 12 13
000
FTUS43 KEAX 211700
TAFMKC
TAF
KMKC 211720Z 2118/2218 14010KT P6SM BKN015
     FM211900 15008KT 6SM -SHRA BR OVC017
     FM220200 16004KT 6SM -DZ BR OVC008
     FM221500 19007KT P6SM BKN015=

USA.gov is the U.S. government's official web portal to all federal, state and local government web resources and services.